Melcher, Iowa
Current Conditions -  °F | °C
As of 5:15 PM on Tuesday 25 Nov 2014 (Local Time) from KOXV Reporting Station
Clear Clear  
Wind Chill: 26°   Ceiling: Unl
Heat Index: 32°   Visibility: 10mi
Dew Point: 12°   Wind: 6mph
Humidity: 44%   Direction: 140°SE
Pressure: 30.06"   Gusts: NA
Location:  41.22°N, 93.24°W
Report Text: KOXV 252315Z AUTO 14005KT 10SM CLR M00/M11 A3006 RMK AO2
Loading
Personal Weather Stations






























Interactive Weather Map New forecast layout! Learn more

10-Day Weather Forecast

Advertisements
Track Severe Weather on mobile